Flight Track Log - Related Links

Times and Time Zones

All times are in EDT time to prevent confusion due to time zone crossing. See the UAL906 flight status page for this flight to view local times or setup timezone preferences in your user account.

Time Position Orientation Groundspeed Altitude Reporting Facility
EDT Latitude Longitude Course Direction KTS MPH feet Rate Location/Type
Mon 07:23:10 AM 49.9520 8.5290 177° South 184 212 2,800  Level FlightAware ADS-B
Mon 07:23:30 AM 49.9350 8.5300 178° South 190 219 3,200 1,167 Climbing FlightAware ADS-B
Mon 07:23:46 AM 49.9210 8.5310 177° South 203 234 3,500 1,227 Climbing FlightAware ADS-B
Mon 07:24:14 AM 49.8910 8.5320 179° South 234 269 4,100 1,393 Climbing FlightAware ADS-B
Mon 07:24:42 AM 49.8610 8.5280 185° South 256 295 4,800 1,731 Climbing FlightAware ADS-B
Mon 07:25:06 AM 49.8320 8.5120 200° South 266 306 5,600 2,000 Climbing FlightAware ADS-B
Mon 07:25:30 AM 49.8040 8.4960 200° South 277 319 6,400 2,000 Climbing FlightAware ADS-B
Mon 07:25:42 AM 49.7900 8.4870 203° Southwest 281 323 6,800 2,357 Climbing FlightAware ADS-B
Mon 07:25:58 AM 49.7730 8.4700 213° Southwest 277 319 7,500 2,571 Climbing FlightAware ADS-B
Mon 07:26:10 AM 49.7630 8.4510 231° Southwest 275 316 8,000 2,571 Climbing FlightAware ADS-B
Mon 07:26:26 AM 49.7570 8.4210 253° West 271 312 8,700 2,182 Climbing FlightAware ADS-B
Mon 07:26:54 AM 49.7610 8.3690 277° West 274 315 9,600 1,406 Climbing FlightAware ADS-B
Mon 07:27:30 AM 49.7770 8.2980 289° West 308 354 10,200 1,034 Climbing FlightAware ADS-B
Mon 07:28:21 AM 49.7780 8.1840 271° West 354 407 11,100 1,036 Climbing FlightAware ADS-B
Mon 07:29:20 AM 49.7690 8.0380 265° West 366 421 12,100 2,079 Climbing FlightAware ADS-B
Mon 07:30:02 AM 49.7630 7.9090 266° West 378 435 14,600 2,721 Climbing FlightAware ADS-B
Mon 07:30:46 AM 49.7570 7.7910 266° West 385 443 16,000 1,857 Climbing FlightAware ADS-B
Mon 07:31:26 AM 49.7510 7.6840 265° West 392 451 17,200 1,725 Climbing FlightAware ADS-B
Mon 07:32:06 AM 49.7450 7.5660 266° West 399 459 18,300 1,579 Climbing FlightAware ADS-B
Mon 07:32:42 AM 49.7390 7.4660 265° West 404 465 19,200 1,558 Climbing FlightAware ADS-B
Mon 07:33:23 AM 49.7330 7.3480 266° West 410 472 20,300 1,571 Climbing FlightAware ADS-B
Mon 07:34:06 AM 49.7250 7.2180 265° West 417 480 21,400 1,425 Climbing FlightAware ADS-B
Mon 07:34:43 AM 49.7190 7.1090 265° West 422 486 22,200 1,325 Climbing FlightAware ADS-B
Mon 07:35:23 AM 49.7120 6.9910 265° West 427 491 23,100 1,435 Climbing FlightAware ADS-B
Mon 07:36:15 AM 49.7020 6.8340 264° West 432 497 24,400 1,565 Climbing FlightAware ADS-B
Mon 07:36:55 AM 49.6940 6.7060 265° West 434 499 25,500 1,143 Climbing FlightAware ADS-B
Mon 07:37:39 AM 49.6860 6.5690 265° West 448 516 26,000 750 Climbing FlightAware ADS-B
Mon 07:38:15 AM 49.6790 6.4580 264° West 455 524 26,500 987 Climbing FlightAware ADS-B
Mon 07:38:58 AM 49.6690 6.3150 264° West 464 534 27,300 1,059 Climbing FlightAware ADS-B
Mon 07:39:40 AM 49.6600 6.1710 265° West 471 542 28,000 988 Climbing FlightAware ADS-B
Mon 07:40:23 AM 49.6520 6.0510 264° West 475 547 28,700 1,091 Climbing FlightAware ADS-B
Mon 07:41:08 AM 49.6400 5.8760 264° West 478 550 29,600 1,037 Climbing FlightAware ADS-B
Mon 07:41:44 AM 49.6310 5.7610 263° West 482 555 30,100 878 Climbing FlightAware ADS-B
Mon 07:42:30 AM 49.6200 5.6010 264° West 487 560 30,800 1,133 Climbing FlightAware ADS-B
Mon 07:43:14 AM 49.6090 5.4430 264° West 486 559 31,800 1,291 Climbing FlightAware ADS-B
Mon 07:43:49 AM 49.6010 5.3360 263° West 481 554 32,500 605 Climbing FlightAware ADS-B
Mon 07:45:13 AM 49.5690 5.0460 260° West 482 555 33,000 238 Climbing FlightAware ADS-B
Mon 07:45:55 AM 49.5510 4.9190 258° West 483 556 33,000  Level FlightAware ADS-B
Mon 07:46:38 AM 49.5280 4.7580 258° West 482 555 33,000  Level FlightAware ADS-B
Mon 07:46:44 AM 49.5237 4.7390 258° West 1 1 33,000  Level FlightAware UK
Mon 07:47:20 AM 49.5080 4.6250 257° West 482 555 33,000  Level FlightAware ADS-B
Mon 07:48:02 AM 49.4833 4.4748 257° West 1 1 33,000  Level FlightAware UK
Mon 07:48:09 AM 49.4830 4.4550 257° West 483 556 33,000  Level FlightAware ADS-B
Mon 07:48:44 AM 49.4646 4.3401 257° West 1 1 33,000  Level FlightAware UK
Mon 07:48:45 AM 49.4670 4.3500 257° West 484 557 33,000 -143 Level FlightAware ADS-B
Mon 07:49:26 AM 49.4423 4.1964 257° West 1 1 32,900  Descending FlightAware UK
Mon 07:49:30 AM 49.4430 4.1930 257° West 486 559 33,000 143 Climbing FlightAware ADS-B
Mon 07:50:08 AM 49.4230 4.0580 257° West 485 558 33,000  Level FlightAware ADS-B
Mon 07:50:54 AM 49.3990 3.9020 257° West 484 557 33,000  Level FlightAware ADS-B
Mon 07:51:30 AM 49.3810 3.7880 256° West 484 557 33,000  Level FlightAware ADS-B
Mon 07:52:14 AM 49.3580 3.6390 257° West 485 558 33,000  Level FlightAware ADS-B
Mon 07:52:54 AM 49.3380 3.5030 257° West 484 557 33,000  Level FlightAware ADS-B
Mon 07:53:30 AM 49.3270 3.3820 262° West 483 556 33,000 -90 Level FlightAware ADS-B
Mon 07:54:01 AM 49.3214 3.2703 262° West 1 1 32,900  Descending FlightAware UK
Mon 07:54:08 AM 49.3220 3.2520 262° West 483 556 33,000 128 Climbing FlightAware ADS-B
Mon 07:54:48 AM 49.3170 3.1150 262° West 483 556 33,000 -146 Level FlightAware ADS-B
Mon 07:54:49 AM 49.3146 3.1032 262° West 1 1 32,900 -162 Descending FlightAware UK
Mon 07:55:25 AM 49.3101 2.9814 262° West 1 1 32,900 146 Level FlightAware UK
Mon 07:55:30 AM 49.3110 2.9730 262° West 483 556 33,000 146 Climbing FlightAware ADS-B
Mon 07:56:06 AM 49.3070 2.8520 267° West 484 557 33,000  Level FlightAware ADS-B
Mon 07:56:55 AM 49.3000 2.6840 266° West 484 557 33,000  Level FlightAware ADS-B
Mon 07:57:31 AM 49.2950 2.5590 267° West 484 557 33,000 -91 Level FlightAware ADS-B
Mon 07:58:01 AM 49.2931 2.4522 267° West 484 557 32,900  Descending FlightAware UK
Mon 07:58:18 AM 49.2890 2.4050 267° West 485 558 33,000 107 Climbing FlightAware ADS-B
Mon 07:58:57 AM 49.2830 2.2670 266° West 486 559 33,000  Level FlightAware ADS-B
Mon 07:59:35 AM 49.2780 2.1330 267° West 486 559 33,000  Level FlightAware ADS-B
Mon 08:00:16 AM 49.2720 2.0060 266° West 486 559 33,000 -97 Level FlightAware ADS-B
Mon 08:00:37 AM 49.2692 1.9194 267° West 484 557 32,900  Descending FlightAware UK
Mon 08:01:13 AM 49.2635 1.7969 266° West 484 557 33,000 67 Climbing FlightAware UK
Mon 08:02:07 AM 49.2545 1.6114 266° West 484 557 33,000  Level FlightAware UK
Mon 08:02:10 AM 49.2550 1.6400 266° West 486 559 33,000  Level FlightAware ADS-B
Mon 08:02:46 AM 49.2470 1.4820 266° West 487 560 33,000  Level FlightAware ADS-B
Mon 08:03:23 AM 49.2410 1.3650 266° West 487 560 33,000  Level FlightAware ADS-B
Mon 08:04:03 AM 49.2340 1.2330 265° West 488 562 33,000  Level FlightAware ADS-B
Mon 08:04:47 AM 49.2260 1.0730 265° West 488 562 33,000  Level FlightAware ADS-B
Mon 08:04:49 AM 49.2255 1.0571 265° West 484 557 33,000  Level FlightAware UK
Mon 08:05:25 AM 49.2187 0.9342 265° West 484 557 33,000  Level FlightAware UK
Mon 08:05:32 AM 49.2180 0.9230 265° West 489 563 33,000  Level FlightAware ADS-B
Mon 08:06:12 AM 49.2100 0.7780 265° West 489 563 33,000  Level FlightAware ADS-B
Mon 08:06:52 AM 49.2020 0.6350 265° West 490 564 33,000  Level FlightAware ADS-B
Mon 08:07:32 AM 49.1940 0.5040 265° West 490 564 33,000  Level FlightAware ADS-B
Mon 08:07:36 AM 49.1929 0.4810 265° West 484 557 33,000  Level FlightAware UK
Mon 08:08:06 AM 49.1866 0.3775 265° West 484 557 33,000  Level FlightAware UK
Mon 08:08:32 AM 49.1810 0.2910 265° West 490 564 33,000  Level FlightAware ADS-B
Mon 08:09:12 AM 49.1730 0.1570 265° West 491 565 33,000  Level FlightAware ADS-B
Mon 08:09:56 AM 49.1640 0.0020 265° West 492 566 33,000  Level FlightAware ADS-B
Mon 08:10:38 AM 49.1540 -0.1430 264° West 492 566 33,000  Level FlightAware ADS-B
Mon 08:11:18 AM 49.1470 -0.2620 265° West 492 566 33,000  Level FlightAware ADS-B
Mon 08:11:55 AM 49.1400 -0.3700 264° West 492 566 33,000  Level FlightAware ADS-B
Mon 08:12:39 AM 49.1280 -0.5570 264° West 492 566 33,000  Level FlightAware ADS-B
Mon 08:13:18 AM 49.1190 -0.6960 264° West 492 566 33,000  Level FlightAware ADS-B
Mon 08:13:53 AM 49.1106 -0.8204 264° West 486 559 33,000  Level FlightAware UK
Mon 08:13:56 AM 49.1110 -0.8240 264° West 492 566 33,000  Level FlightAware ADS-B
Mon 08:14:46 AM 49.0990 -1.0020 264° West 492 566 33,000  Level FlightAware ADS-B
Mon 08:15:26 AM 49.0900 -1.1320 264° West 492 566 33,000  Level FlightAware ADS-B
Mon 08:16:08 AM 49.0810 -1.2790 265° West 491 565 33,000  Level FlightAware ADS-B
Mon 08:16:48 AM 49.0720 -1.4200 264° West 491 565 33,000  Level FlightAware ADS-B
Mon 08:17:32 AM 49.0610 -1.5690 264° West 491 565 33,000  Level FlightAware ADS-B
Mon 08:18:14 AM 49.0520 -1.7170 265° West 491 565 33,000  Level FlightAware ADS-B
Mon 08:18:56 AM 49.0420 -1.8620 264° West 493 567 33,000  Level FlightAware ADS-B
Mon 08:19:29 AM 49.0330 -1.9737 264° West 490 564 33,000  Level FlightAware UK
Mon 08:19:40 AM 49.0310 -2.0150 264° West 500 575 33,000  Level FlightAware ADS-B
Mon 08:20:28 AM 49.0299 -2.1864 264° West 492 566 33,000  Level FlightAware UK
Mon 08:20:36 AM 49.0350 -2.2110 264° West 510 587 33,000  Level FlightAware ADS-B
Mon 08:21:16 AM 49.0680 -2.3440 291° West 514 592 33,000 143 Level FlightAware ADS-B
Mon 08:22:00 AM 49.1080 -2.4910 293° West 515 593 33,200 643 Climbing FlightAware ADS-B
Mon 08:22:40 AM 49.1440 -2.6230 293° West 507 583 33,900 632 Climbing FlightAware ADS-B
Mon 08:23:16 AM 49.1760 -2.7400 293° West 505 581 34,000 417 Climbing FlightAware ADS-B
Mon 08:23:52 AM 49.2090 -2.8647 293° West 482 555 34,400 900 Climbing FlightAware UK
Mon 08:23:56 AM 49.2120 -2.8760 293° West 501 577 34,600 980 Climbing FlightAware ADS-B
Mon 08:24:41 AM 49.2510 -3.0230 292° West 501 577 35,200 696 Climbing FlightAware ADS-B
Mon 08:25:05 AM 49.2720 -3.0990 293° West 502 578 35,400 618 Climbing FlightAware ADS-B
Mon 08:25:49 AM 49.3110 -3.2460 292° West 503 579 35,900 434 Climbing FlightAware ADS-B
Mon 08:26:28 AM 49.3445 -3.3760 292° West 478 550 36,000 136 Climbing FlightAware UK
Mon 08:26:33 AM 49.3490 -3.3920 292° West 505 581 36,000  Level FlightAware ADS-B
Mon 08:27:09 AM 49.3810 -3.5140 292° West 504 580 36,000  Level FlightAware ADS-B
Mon 08:27:53 AM 49.4180 -3.6560 292° West 504 580 36,000  Level FlightAware ADS-B
Mon 08:28:33 AM 49.4530 -3.7900 292° West 505 581 36,000 -86 Level FlightAware ADS-B
Mon 08:29:03 AM 49.4815 -3.8921 292° West 476 548 35,900  Descending FlightAware UK
Mon 08:29:11 AM 49.4880 -3.9120 292° West 507 583 36,000 111 Climbing FlightAware ADS-B
Mon 08:29:57 AM 49.5330 -4.0660 294° West 507 583 36,000  Level FlightAware ADS-B
Mon 08:30:29 AM 49.5640 -4.1710 295° West 506 582 36,000  Level FlightAware ADS-B
Mon 08:31:11 AM 49.6030 -4.3090 294° West 506 582 36,000  Level FlightAware ADS-B
Mon 08:31:55 AM 49.6440 -4.4560 293° West 507 583 36,000  Level FlightAware ADS-B
Mon 08:32:31 AM 49.6760 -4.5700 293° West 507 583 36,000  Level FlightAware ADS-B
Mon 08:33:15 AM 49.7184 -4.7215 293° West 476 548 36,000  Level FlightAware UK
Mon 08:33:26 AM 49.7280 -4.7570 293° West 508 585 36,000  Level FlightAware ADS-B
Mon 08:34:05 AM 49.7640 -4.8850 294° West 508 585 36,000  Level FlightAware ADS-B
Mon 08:34:41 AM 49.7970 -5.0060 293° West 508 585 36,000  Level FlightAware ADS-B
Mon 08:35:23 AM 49.8360 -5.1470 293° West 509 586 36,000  Level FlightAware ADS-B
Mon 08:36:07 AM 49.8760 -5.2920 293° West 510 587 36,000  Level FlightAware ADS-B
Mon 08:36:47 AM 49.9130 -5.4290 293° West 510 587 36,000  Level FlightAware ADS-B
Mon 08:37:30 AM 49.9510 -5.5730 292° West 510 587 36,000  Level FlightAware ADS-B
Mon 08:38:09 AM 49.9872 -5.7064 292° West 478 550 36,000  Level FlightAware UK
Mon 08:38:10 AM 49.9870 -5.7060 292° West 511 588 36,000  Level FlightAware ADS-B
Mon 08:38:55 AM 50.0280 -5.8600 293° West 510 587 36,000  Level FlightAware ADS-B
Mon 08:39:28 AM 50.0580 -5.9720 293° West 510 587 36,000  Level FlightAware ADS-B
Mon 08:40:13 AM 50.0980 -6.1240 292° West 510 587 36,000  Level FlightAware ADS-B
Mon 08:40:45 AM 50.1266 -6.2342 292° West 478 550 36,000  Level FlightAware UK
Mon 08:40:53 AM 50.1330 -6.2570 292° West 510 587 36,000  Level FlightAware ADS-B
Mon 08:41:37 AM 50.1720 -6.4080 292° West 511 588 36,000  Level FlightAware ADS-B
Mon 08:42:17 AM 50.2080 -6.5460 292° West 510 587 36,000  Level FlightAware ADS-B
Mon 08:42:57 AM 50.2429 -6.6836 292° West 478 550 36,000  Level FlightAware UK
Mon 08:42:58 AM 50.2430 -6.6860 292° West 510 587 36,000  Level FlightAware ADS-B
Mon 08:43:42 AM 50.2810 -6.8340 292° West 509 586 36,000  Level FlightAware ADS-B
Mon 08:44:18 AM 50.3130 -6.9580 292° West 509 586 36,000  Level FlightAware ADS-B
Mon 08:44:59 AM 50.3470 -7.0950 291° West 509 586 36,000  Level FlightAware ADS-B
Mon 08:45:32 AM 50.3774 -7.2164 291° West 478 550 36,000  Level FlightAware UK
Mon 08:45:42 AM 50.3850 -7.2450 291° West 509 586 36,000  Level FlightAware ADS-B
Mon 08:46:15 AM 50.4140 -7.3610 291° West 508 585 36,000  Level FlightAware ADS-B
Mon 08:46:55 AM 50.4480 -7.4980 291° West 508 585 36,000  Level FlightAware ADS-B
Mon 08:47:32 AM 50.4794 -7.6273 291° West 478 550 36,000  Level FlightAware UK
Mon 08:47:35 AM 50.4820 -7.6360 291° West 506 582 36,000  Level FlightAware ADS-B
Mon 08:48:15 AM 50.5150 -7.7720 291° West 505 581 36,000  Level FlightAware ADS-B
Mon 08:49:02 AM 50.5544 -7.9349 291° West 480 552 36,000  Level FlightAware UK
Mon 08:49:04 AM 50.5550 -7.9370 291° West 503 579 36,000  Level FlightAware ADS-B
Mon 08:49:38 AM 50.5837 -8.0579 291° West 480 552 36,000  Level FlightAware UK
Mon 08:49:42 AM 50.5850 -8.0630 291° West 501 577 36,000  Level FlightAware ADS-B
Mon 08:50:26 AM 50.6220 -8.2140 291° West 500 575 36,000  Level FlightAware ADS-B
Mon 08:51:08 AM 50.6550 -8.3550 290° West 498 573 36,000  Level FlightAware ADS-B
Mon 08:51:44 AM 50.6856 -8.4845 290° West 478 550 36,000  Level FlightAware UK
Mon 08:51:52 AM 50.6910 -8.5080 290° West 496 571 36,000  Level FlightAware ADS-B
Mon 08:52:37 AM 50.7270 -8.6610 290° West 494 568 36,000  Level FlightAware ADS-B
Mon 08:53:14 AM 50.7566 -8.7884 290° West 478 550 36,000  Level FlightAware UK
Mon 08:53:16 AM 50.7560 -8.7830 290° West 490 564 36,000  Level FlightAware ADS-B
Mon 08:53:55 AM 50.7880 -8.9210 290° West 490 564 36,000  Level FlightAware ADS-B
Mon 08:54:39 AM 50.8230 -9.0720 290° West 488 562 36,000  Level FlightAware ADS-B
Mon 08:55:34 AM 50.8600 -9.2390 289° West 485 558 36,000  Level FlightAware ADS-B
Mon 08:56:23 AM 50.8980 -9.4030 290° West 483 556 36,000  Level FlightAware ADS-B
Mon 08:57:11 AM 50.9300 -9.5510 289° West 483 556 36,000  Level FlightAware ADS-B
Mon 08:57:54 AM 50.9670 -9.7090 290° West 479 551 36,000  Level FlightAware ADS-B
Mon 08:58:27 AM 50.9910 -9.8180 289° West 479 551 36,000  Level FlightAware ADS-B
Mon 08:59:07 AM 51.0200 -9.9490 289° West 476 548 36,000  Level FlightAware ADS-B
Mon 08:59:47 AM 51.0430 -10.0620 288° West 476 548 36,000  Level FlightAware ADS-B
Mon 09:00:27 AM 51.0800 -10.2240 290° West 477 549 36,000  Level FlightAware ADS-B
Mon 09:01:04 AM 51.1040 -10.3370 289° West 474 545 36,000  Level FlightAware ADS-B
Mon 09:01:53 AM 51.1400 -10.5000 289° West 474 545 36,000  Level FlightAware ADS-B
Mon 09:02:28 AM 51.1650 -10.6210 288° West 475 547 36,000  Level FlightAware ADS-B
Mon 09:03:47 AM 51.2170 -10.8680 289° West 474 545 36,000 204 Level FlightAware ADS-B
Mon 09:04:55 AM 51.2680 -11.1100 289° West 472 543 36,500 491 Climbing FlightAware ADS-B
Mon 09:05:37 AM 51.2970 -11.2460 289° West 473 544 36,900 300 Climbing FlightAware ADS-B
Mon 09:06:35 AM 51.3300 -11.4120 288° West 473 544 37,000 64 Climbing FlightAware ADS-B
Mon 09:07:11 AM 51.3510 -11.5140 288° West 473 544 37,000  Level FlightAware ADS-B
Mon 09:08:00 AM 51.3790 -11.6520 288° West 473 544 37,000  Level FlightAware ADS-B
Mon 09:08:36 AM 51.4000 -11.7550 288° West 473 544 37,000  Level FlightAware ADS-B
Mon 09:09:36 AM 51.4340 -11.9250 288° West 473 544 37,000  Level FlightAware ADS-B
Mon 09:10:10 AM 51.4540 -12.0210 289° West 473 544 37,000  Level FlightAware ADS-B
Mon 09:10:53 AM 51.5080 -12.2960 288° West 470 541 37,000  Level FlightAware ADS-B
Mon 09:11:38 AM 51.5370 -12.4450 287° West 469 540 37,000  Level FlightAware ADS-B
Mon 09:12:30 AM 51.5630 -12.5910 286° West 469 540 37,000  Level FlightAware ADS-B
Mon 09:13:06 AM 51.5810 -12.6940 286° West 469 540 37,000  Level FlightAware ADS-B
Mon 09:13:56 AM 51.6070 -12.8360 286° West 469 540 37,000  Level FlightAware ADS-B
Mon 09:14:44 AM 51.6310 -12.9730 286° West 469 540 37,000  Level FlightAware ADS-B
Mon 09:15:20 AM 51.6490 -13.0760 286° West 469 540 37,000  Level FlightAware ADS-B
Mon 09:16:08 AM 51.6740 -13.2140 286° West 469 540 37,000  Level FlightAware ADS-B
Mon 09:16:57 AM 51.6990 -13.3540 286° West 469 540 37,000  Level FlightAware ADS-B
Mon 09:17:33 AM 51.7170 -13.4570 286° West 469 540 37,000  Level FlightAware ADS-B
Mon 09:18:21 AM 51.7410 -13.5940 286° West 469 540 37,000  Level FlightAware ADS-B
Mon 09:18:57 AM 51.7600 -13.6970 287° West 469 540 37,000  Level FlightAware ADS-B
Mon 09:19:45 AM 51.7840 -13.8350 286° West 469 540 37,000  Level FlightAware ADS-B
Mon 09:20:21 AM 51.8020 -13.9380 286° West 469 540 37,000  Level FlightAware ADS-B
Mon 09:21:09 AM 51.8270 -14.0760 286° West 469 540 37,000  Level FlightAware ADS-B
Mon 09:21:46 AM 51.8460 -14.1820 286° West 469 540 37,000  Level FlightAware ADS-B
Mon 09:24:00 AM 51.9337 -14.5922 289° West  Level Estimated
Mon 09:25:00 AM 51.9725 -14.7764 289° West  Level Estimated
Mon 09:26:00 AM 52.0110 -14.9609 289° West  Level Estimated
Mon 09:27:00 AM 52.0492 -15.1458 289° West  Level Estimated
Mon 09:28:00 AM 52.0872 -15.3309 289° West  Level Estimated
Mon 09:29:00 AM 52.1248 -15.5164 288° West  Level Estimated
Mon 09:30:00 AM 52.1622 -15.7022 288° West  Level Estimated
Mon 09:31:00 AM 52.1992 -15.8883 288° West  Level Estimated
Mon 09:32:00 AM 52.2360 -16.0746 288° West  Level Estimated
Mon 09:33:00 AM 52.2725 -16.2614 288° West  Level Estimated
Mon 09:34:00 AM 52.3087 -16.4484 288° West  Level Estimated
Mon 09:35:00 AM 52.3445 -16.6357 287° West  Level Estimated
Mon 09:36:00 AM 52.3801 -16.8233 287° West  Level Estimated
Mon 09:37:00 AM 52.4154 -17.0112 287° West  Level Estimated
Mon 09:38:00 AM 52.4504 -17.1994 287° West  Level Estimated
Mon 09:39:00 AM 52.4851 -17.3880 287° West  Level Estimated
Mon 09:40:00 AM 52.5249 -17.6070 287° West  Level Estimated
Mon 09:41:00 AM 52.5644 -17.8264 287° West  Level Estimated
Mon 09:42:00 AM 52.6035 -18.0462 286° West  Level Estimated
Mon 09:43:00 AM 52.6421 -18.2664 286° West  Level Estimated
Mon 09:44:00 AM 52.6803 -18.4869 286° West  Level Estimated
Mon 09:45:00 AM 52.7181 -18.7079 286° West  Level Estimated
Mon 09:46:00 AM 52.7556 -18.9293 286° West  Level Estimated
Mon 09:47:00 AM 52.7925 -19.1510 286° West  Level Estimated
Mon 09:48:00 AM 52.8291 -19.3731 285° West  Level Estimated
Mon 09:49:00 AM 52.8653 -19.5956 285° West  Level Estimated
Mon 09:50:00 AM 52.9011 -19.8184 285° West  Level Estimated
Mon 09:51:00 AM 52.9364 -20.0416 285° West  Level Estimated
Mon 09:51:00 AM 51.0000 -20.0000 265° West 463 533 37,000  Level ETMS Enhanced Traffic Management System
Mon 09:52:00 AM 52.9704 -20.2595 285° West  Level Estimated
Mon 09:53:00 AM 53.0041 -20.4777 284° West  Level Estimated
Mon 09:54:00 AM 53.0373 -20.6963 284° West  Level Estimated
Mon 09:55:00 AM 53.0701 -20.9152 284° West  Level Estimated
Mon 09:56:00 AM 53.1026 -21.1345 284° West  Level Estimated
Mon 09:57:00 AM 50.9121 -21.4231 264° West 463 533 37,000  Level FlightAware Transoceanic
Mon 09:58:00 AM 50.8981 -21.6259 264° West 463 533 37,000  Level FlightAware Transoceanic
Mon 09:59:00 AM 50.8838 -21.8287 264° West 463 533 37,000  Level FlightAware Transoceanic
Mon 10:00:00 AM 50.8691 -22.0312 263° West 463 533 37,000  Level FlightAware Transoceanic
Mon 10:01:00 AM 50.8541 -22.2337 263° West 463 533 37,000  Level FlightAware Transoceanic
Mon 10:02:00 AM 50.8387 -22.4361 263° West 463 533 37,000  Level FlightAware Transoceanic
Mon 10:03:00 AM 50.8230 -22.6382 263° West 463 533 37,000  Level FlightAware Transoceanic
Mon 10:04:00 AM 50.8069 -22.8403 263° West 463 533 37,000  Level FlightAware Transoceanic
Mon 10:05:00 AM 50.7905 -23.0422 263° West 463 533 37,000  Level FlightAware Transoceanic
Mon 10:06:00 AM 50.7737 -23.2440 262° West 463 533 37,000  Level FlightAware Transoceanic
Mon 10:07:00 AM 50.7566 -23.4456 262° West 463 533 37,000  Level FlightAware Transoceanic
Mon 10:08:00 AM 50.7391 -23.6471 262° West 463 533 37,000  Level FlightAware Transoceanic
Mon 10:09:00 AM 50.7213 -23.8484 262° West 463 533 37,000  Level FlightAware Transoceanic
Mon 10:10:00 AM 50.7031 -24.0496 262° West 463 533 37,000  Level FlightAware Transoceanic
Mon 10:11:00 AM 50.6846 -24.2506 262° West 463 533 37,000  Level FlightAware Transoceanic
Mon 10:12:00 AM 50.6658 -24.4515 261° West 463 533 37,000  Level FlightAware Transoceanic
Mon 10:13:00 AM 50.6466 -24.6522 261° West 463 533 37,000  Level FlightAware Transoceanic
Mon 10:14:00 AM 50.6270 -24.8527 261° West 463 533 37,000  Level FlightAware Transoceanic
Mon 10:15:00 AM 50.6072 -25.0531 261° West 463 533 37,000  Level FlightAware Transoceanic
Mon 10:16:00 AM 50.5869 -25.2533 261° West 463 533 37,000  Level FlightAware Transoceanic
Mon 10:17:00 AM 50.5664 -25.4533 261° West 463 533 37,000  Level FlightAware Transoceanic
Mon 10:18:00 AM 50.5454 -25.6531 261° West 463 533 37,000  Level FlightAware Transoceanic
Mon 10:19:00 AM 50.5242 -25.8528 260° West 463 533 37,000  Level FlightAware Transoceanic
Mon 10:20:00 AM 50.5026 -26.0523 260° West 463 533 37,000  Level FlightAware Transoceanic
Mon 10:21:00 AM 50.4807 -26.2516 260° West 463 533 37,000  Level FlightAware Transoceanic
Mon 10:22:00 AM 50.4584 -26.4507 260° West 463 533 37,000  Level FlightAware Transoceanic
Mon 10:23:00 AM 50.4358 -26.6496 260° West 463 533 37,000  Level FlightAware Transoceanic
Mon 10:24:00 AM 50.4128 -26.8483 260° West 463 533 37,000  Level FlightAware Transoceanic
Mon 10:25:00 AM 50.3895 -27.0469 259° West 463 533 37,000  Level FlightAware Transoceanic
Mon 10:26:00 AM 50.3659 -27.2452 259° West 463 533 37,000  Level FlightAware Transoceanic
Mon 10:27:00 AM 50.3419 -27.4433 259° West 463 533 37,000  Level FlightAware Transoceanic
Mon 10:28:00 AM 50.3176 -27.6413 259° West 463 533 37,000  Level FlightAware Transoceanic
Mon 10:29:00 AM 50.2930 -27.8390 259° West 463 533 37,000  Level FlightAware Transoceanic
Mon 10:30:00 AM 50.2680 -28.0365 259° West 463 533 37,000  Level FlightAware Transoceanic
Mon 10:31:00 AM 50.2427 -28.2339 259° West 463 533 37,000  Level FlightAware Transoceanic
Mon 10:32:00 AM 50.2171 -28.4310 258° West 463 533 37,000  Level FlightAware Transoceanic
Mon 10:33:00 AM 50.1911 -28.6279 258° West 463 533 37,000  Level FlightAware Transoceanic
Mon 10:34:00 AM 50.1648 -28.8246 258° West 463 533 37,000  Level FlightAware Transoceanic
Mon 10:35:00 AM 50.1381 -29.0210 258° West 463 533 37,000  Level FlightAware Transoceanic
Mon 10:36:00 AM 50.1112 -29.2173 258° West 463 533 37,000  Level FlightAware Transoceanic
Mon 10:37:00 AM 50.0839 -29.4133 258° West 463 533 37,000  Level FlightAware Transoceanic
Mon 10:38:00 AM 50.0563 -29.6091 258° West 463 533 37,000  Level FlightAware Transoceanic
Mon 10:39:00 AM 50.0283 -29.8047 257° West 463 533 37,000  Level FlightAware Transoceanic
Mon 10:40:00 AM 49.9985 -30.0105 257° West  Level FlightAware Approximate
Mon 10:41:00 AM 49.9967 -30.0210 256° West  Level FlightAware Approximate
Mon 10:42:00 AM 49.9644 -30.2258 256° West  Level FlightAware Approximate
Mon 10:43:00 AM 49.9318 -30.4304 256° West  Level FlightAware Approximate
Mon 10:44:00 AM 49.8988 -30.6347 256° West  Level FlightAware Approximate
Mon 10:45:00 AM 49.8655 -30.8387 256° West  Level FlightAware Approximate
Mon 10:46:00 AM 49.8318 -31.0424 256° West  Level FlightAware Approximate
Mon 10:47:00 AM 49.7977 -31.2459 256° West  Level FlightAware Approximate
Mon 10:48:00 AM 49.7633 -31.4490 255° West  Level FlightAware Approximate
Mon 10:49:00 AM 49.7285 -31.6519 255° West  Level FlightAware Approximate
Mon 10:50:00 AM 49.6934 -31.8545 255° West  Level FlightAware Approximate
Mon 10:51:00 AM 49.6579 -32.0567 255° West  Level FlightAware Approximate
Mon 10:52:00 AM 49.6221 -32.2587 255° West  Level FlightAware Approximate
Mon 10:53:00 AM 49.5859 -32.4604 255° West  Level FlightAware Approximate
Mon 10:54:00 AM 49.5502 -32.6621 255° West  Level FlightAware Approximate
Mon 10:55:00 AM 49.5152 -32.8640 255° West  Level FlightAware Approximate
Mon 10:56:00 AM 49.4798 -33.0656 255° West  Level FlightAware Approximate
Mon 10:57:00 AM 49.4441 -33.2669 255° West  Level FlightAware Approximate
Mon 10:58:00 AM 49.4080 -33.4679 255° West  Level FlightAware Approximate
Mon 10:59:00 AM 49.3716 -33.6686 254° West  Level FlightAware Approximate
Mon 11:00:00 AM 49.3348 -33.8690 254° West  Level FlightAware Approximate
Mon 11:01:00 AM 49.2977 -34.0691 254° West  Level FlightAware Approximate
Mon 11:02:00 AM 49.2602 -34.2688 254° West  Level FlightAware Approximate
Mon 11:03:00 AM 49.2224 -34.4683 254° West  Level FlightAware Approximate
Mon 11:04:00 AM 49.1842 -34.6675 254° West  Level FlightAware Approximate
Mon 11:05:00 AM 49.1457 -34.8664 254° West  Level FlightAware Approximate
Mon 11:06:00 AM 49.1069 -35.0649 253° West  Level FlightAware Approximate
Mon 11:07:00 AM 49.0668 -35.2628 253° West  Level FlightAware Approximate
Mon 11:08:00 AM 49.0261 -35.4602 253° West  Level FlightAware Approximate
Mon 11:09:00 AM 48.9851 -35.6572 252° West  Level FlightAware Approximate
Mon 11:10:00 AM 48.9437 -35.8540 252° West  Level FlightAware Approximate
Mon 11:11:00 AM 48.9021 -36.0504 252° West  Level FlightAware Approximate
Mon 11:12:00 AM 48.8601 -36.2464 252° West  Level FlightAware Approximate
Mon 11:13:00 AM 48.8177 -36.4422 252° West  Level FlightAware Approximate
Mon 11:14:00 AM 48.7751 -36.6376 252° West  Level FlightAware Approximate
Mon 11:15:00 AM 48.7321 -36.8327 252° West  Level FlightAware Approximate
Mon 11:16:00 AM 48.6887 -37.0275 251° West  Level FlightAware Approximate
Mon 11:17:00 AM 48.6451 -37.2219 251° West  Level FlightAware Approximate
Mon 11:18:00 AM 48.6011 -37.4160 251° West  Level FlightAware Approximate
Mon 11:19:00 AM 48.5572 -37.6099 252° West  Level FlightAware Approximate
Mon 11:20:00 AM 48.5142 -37.8041 252° West  Level FlightAware Approximate
Mon 11:21:00 AM 48.4708 -37.9981 251° West  Level FlightAware Approximate
Mon 11:22:00 AM 48.4272 -38.1917 251° West  Level FlightAware Approximate
Mon 11:23:00 AM 48.3832 -38.3849 251° West  Level FlightAware Approximate
Mon 11:24:00 AM 48.3389 -38.5778 251° West  Level FlightAware Approximate
Mon 11:25:00 AM 48.2943 -38.7704 251° West  Level FlightAware Approximate
Mon 11:26:00 AM 48.2494 -38.9627 251° West  Level FlightAware Approximate
Mon 11:27:00 AM 48.2042 -39.1546 251° West  Level FlightAware Approximate
Mon 11:28:00 AM 48.1586 -39.3461 250° West  Level FlightAware Approximate
Mon 11:29:00 AM 48.1127 -39.5374 250° West  Level FlightAware Approximate
Mon 11:30:00 AM 48.0665 -39.7283 250° West  Level FlightAware Approximate
Mon 11:31:00 AM 48.0200 -39.9188 250° West  Level FlightAware Approximate
Mon 11:32:00 AM 47.9829 -40.1133 257° West  Level FlightAware Approximate
Mon 11:33:00 AM 47.9528 -40.3108 257° West  Level FlightAware Approximate
Mon 11:34:00 AM 47.9223 -40.5081 257° West  Level FlightAware Approximate
Mon 11:35:00 AM 47.8915 -40.7051 257° West  Level FlightAware Approximate
Mon 11:36:00 AM 47.8604 -40.9019 257° West  Level FlightAware Approximate
Mon 11:37:00 AM 47.8289 -41.0984 257° West  Level FlightAware Approximate
Mon 11:38:00 AM 47.7972 -41.2944 257° West  Level FlightAware Approximate
Mon 11:39:00 AM 47.7651 -41.4901 256° West  Level FlightAware Approximate
Mon 11:40:00 AM 47.7327 -41.6856 256° West  Level FlightAware Approximate
Mon 11:41:00 AM 47.6999 -41.8808 256° West  Level FlightAware Approximate
Mon 11:42:00 AM 47.6669 -42.0758 256° West  Level FlightAware Approximate
Mon 11:43:00 AM 47.6335 -42.2705 256° West  Level FlightAware Approximate
Mon 11:44:00 AM 47.5997 -42.4650 256° West  Level FlightAware Approximate
Mon 11:45:00 AM 47.5657 -42.6592 255° West  Level FlightAware Approximate
Mon 11:46:00 AM 47.5313 -42.8532 255° West  Level FlightAware Approximate
Mon 11:47:00 AM 47.4966 -43.0469 255° West  Level FlightAware Approximate
Mon 11:48:00 AM 47.4615 -43.2403 255° West  Level FlightAware Approximate
Mon 11:49:00 AM 47.4262 -43.4336 255° West  Level FlightAware Approximate
Mon 11:50:00 AM 47.3905 -43.6265 255° West  Level FlightAware Approximate
Mon 11:51:00 AM 47.3545 -43.8192 255° West  Level FlightAware Approximate
Mon 11:52:00 AM 47.3181 -44.0116 255° West  Level FlightAware Approximate
Mon 11:53:00 AM 47.2815 -44.2037 254° West  Level FlightAware Approximate
Mon 11:54:00 AM 47.2445 -44.3956 254° West  Level FlightAware Approximate
Mon 11:55:00 AM 47.2072 -44.5872 254° West  Level FlightAware Approximate
Mon 11:56:00 AM 47.1696 -44.7786 254° West  Level FlightAware Approximate
Mon 11:57:00 AM 47.1317 -44.9696 254° West  Level FlightAware Approximate
Mon 11:58:00 AM 47.0934 -45.1604 254° West  Level FlightAware Approximate
Mon 11:59:00 AM 47.0549 -45.3509 254° West  Level FlightAware Approximate
Mon 12:00:00 PM 47.0160 -45.5412 253° West  Level FlightAware Approximate
Mon 12:01:00 PM 46.9768 -45.7312 253° West  Level FlightAware Approximate
Mon 12:02:00 PM 46.9373 -45.9208 253° West  Level FlightAware Approximate
Mon 12:03:00 PM 46.8975 -46.1103 253° West  Level FlightAware Approximate
Mon 12:04:00 PM 46.8573 -46.2994 253° West  Level FlightAware Approximate
Mon 12:05:00 PM 46.8169 -46.4882 253° West  Level FlightAware Approximate
Mon 12:06:00 PM 46.7761 -46.6768 253° West  Level FlightAware Approximate
Mon 12:07:00 PM 46.7351 -46.8651 252° West  Level FlightAware Approximate
Mon 12:08:00 PM 46.6937 -47.0530 252° West  Level FlightAware Approximate
Mon 12:09:00 PM 46.6520 -47.2407 252° West  Level FlightAware Approximate
Mon 12:10:00 PM 46.6100 -47.4281 252° West  Level FlightAware Approximate
Mon 12:11:00 PM 46.5677 -47.6152 252° West  Level FlightAware Approximate
Mon 12:12:00 PM 46.5251 -47.8021 252° West  Level FlightAware Approximate
Mon 12:13:00 PM 46.4822 -47.9886 252° West  Level FlightAware Approximate
Mon 12:14:00 PM 46.4390 -48.1748 251° West  Level FlightAware Approximate
Mon 12:15:00 PM 46.3955 -48.3607 251° West  Level FlightAware Approximate
Mon 12:16:00 PM 46.3517 -48.5464 251° West  Level FlightAware Approximate
Mon 12:17:00 PM 46.3076 -48.7317 251° West  Level FlightAware Approximate
Mon 12:18:00 PM 46.2632 -48.9168 251° West  Level FlightAware Approximate
Mon 12:19:00 PM 46.2185 -49.1015 251° West  Level FlightAware Approximate
Mon 12:20:00 PM 46.1735 -49.2859 251° West  Level FlightAware Approximate
Mon 12:21:00 PM 46.1282 -49.4701 251° West  Level FlightAware Approximate
Mon 12:22:00 PM 46.0826 -49.6539 250° West  Level FlightAware Approximate
Mon 12:23:00 PM 46.0368 -49.8374 250° West  Level FlightAware Approximate
Mon 12:24:00 PM 45.9964 -50.0224 257° West  Level FlightAware Approximate
Mon 12:25:00 PM 45.9655 -50.2121 257° West  Level FlightAware Approximate
Mon 12:26:00 PM 45.9342 -50.4015 257° West  Level FlightAware Approximate
Mon 12:27:00 PM 45.9027 -50.5907 257° West  Level FlightAware Approximate
Mon 12:28:00 PM 45.8709 -50.7798 256° West  Level FlightAware Approximate
Mon 12:29:00 PM 45.8387 -50.9685 256° West  Level FlightAware Approximate
Mon 12:30:00 PM 45.8078 -51.1576 257° West  Level FlightAware Approximate
Mon 12:31:00 PM 45.7768 -51.3466 257° West  Level FlightAware Approximate
Mon 12:32:00 PM 45.7456 -51.5354 257° West  Level FlightAware Approximate
Mon 12:32:18 PM 45.9833 -50.0500 264° West 480 552 37,000  Level Gander Center
Mon 12:33:00 PM 45.7140 -51.7240 257° West  Level FlightAware Approximate
Mon 12:33:18 PM 45.9500 -50.2500 257° West 470 541 37,000  Level Gander Center
Mon 12:34:00 PM 45.6821 -51.9123 256° West  Level FlightAware Approximate
Mon 12:34:18 PM 45.9333 -50.4167 262° West 470 541 37,000  Level Gander Center
Mon 12:35:00 PM 45.6497 -52.1038 264° West  Level FlightAware Approximate
Mon 12:35:18 PM 45.9167 -50.6167 263° West 470 541 37,000  Level Gander Center
Mon 12:36:00 PM 45.6352 -52.2997 264° West  Level FlightAware Approximate
Mon 12:36:18 PM 45.9167 -50.8000 270° West 470 541 37,000  Level Gander Center
Mon 12:37:00 PM 45.6203 -52.4955 264° West  Level FlightAware Approximate
Mon 12:37:18 PM 45.9000 -50.9833 263° West 470 541 37,000  Level Gander Center
Mon 12:38:18 PM 45.8833 -51.1833 263° West 470 541 37,000  Level Gander Center
Mon 12:39:18 PM 45.8667 -51.3500 262° West 470 541 37,000  Level Gander Center
Mon 12:40:18 PM 45.8500 -51.5500 263° West 480 552 37,000  Level Gander Center
Mon 12:41:18 PM 45.8500 -51.7333 270° West 480 552 37,000  Level Gander Center
Mon 12:46:51 PM 45.7650 -52.8460 270° West 487 560 37,000  Level FlightAware ADS-B
Mon 12:47:28 PM 45.7550 -52.9460 262° West 487 560 37,000  Level FlightAware ADS-B
Mon 12:48:18 PM 45.7400 -53.1180 263° West 488 562 37,000  Level FlightAware ADS-B
Mon 12:48:54 PM 45.7310 -53.2160 263° West 488 562 37,000  Level FlightAware ADS-B
Mon 12:49:43 PM 45.7170 -53.3500 262° West 488 562 37,000  Level FlightAware ADS-B
Mon 12:50:21 PM 45.7030 -53.5260 264° West 489 563 37,000  Level FlightAware ADS-B
Mon 12:51:04 PM 45.6900 -53.6600 262° West 490 564 37,000 145 Level FlightAware ADS-B
Mon 12:51:44 PM 45.6770 -53.7880 262° West 487 560 37,200 152 Climbing FlightAware ADS-B
Mon 12:52:23 PM 45.6660 -53.9030 262° West 485 558 37,200 349 Level FlightAware ADS-B
Mon 12:53:10 PM 45.6500 -54.0610 262° West 479 551 37,700 483 Climbing FlightAware ADS-B
Mon 12:53:50 PM 45.6380 -54.1870 262° West 477 549 37,900 214 Climbing FlightAware ADS-B
Mon 12:54:34 PM 45.6250 -54.3190 262° West 479 551 38,000 75 Climbing FlightAware ADS-B
Mon 12:55:10 PM 45.6130 -54.4340 262° West 479 551 38,000  Level FlightAware ADS-B
Mon 12:55:58 PM 45.5970 -54.5860 261° West 479 551 38,000  Level FlightAware ADS-B
Mon 12:56:40 PM 45.5830 -54.7130 261° West 480 552 38,000  Level FlightAware ADS-B
Mon 12:57:20 PM 45.5720 -54.8200 262° West 480 552 38,000  Level FlightAware ADS-B
Mon 12:58:07 PM 45.5580 -54.9450 261° West 480 552 38,000  Level FlightAware ADS-B
Mon 12:58:43 PM 45.5470 -55.0410 261° West 480 552 38,000  Level FlightAware ADS-B
Mon 12:59:31 PM 45.5330 -55.1680 261° West 480 552 38,000  Level FlightAware ADS-B
Mon 01:00:11 PM 45.5110 -55.3750 261° West 479 551 38,000  Level FlightAware ADS-B
Mon 01:01:21 PM 45.4880 -55.5680 260° West 480 552 38,000  Level FlightAware ADS-B
Mon 01:01:57 PM 45.4770 -55.6630 261° West 480 552 38,000  Level FlightAware ADS-B
Mon 01:02:44 PM 45.4610 -55.7880 260° West 480 552 38,000  Level FlightAware ADS-B
Mon 01:03:20 PM 45.4490 -55.8830 260° West 480 552 38,000  Level FlightAware ADS-B
Mon 01:04:09 PM 45.4330 -56.0130 260° West 480 552 38,000  Level FlightAware ADS-B
Mon 01:04:45 PM 45.4220 -56.1080 261° West 480 552 38,000  Level FlightAware ADS-B
Mon 01:05:32 PM 45.3960 -56.3690 262° West 480 552 38,000  Level FlightAware ADS-B
Mon 01:06:12 PM 45.3820 -56.4750 259° West 480 552 38,000  Level FlightAware ADS-B
Mon 01:07:00 PM 45.3670 -56.6020 261° West 480 552 38,000  Level FlightAware ADS-B
Mon 01:07:36 PM 45.3550 -56.6970 260° West 480 552 38,000  Level FlightAware ADS-B
Mon 01:08:22 PM 45.3400 -56.8190 260° West 480 552 38,000  Level FlightAware ADS-B
Mon 01:08:58 PM 45.3280 -56.9140 260° West 480 552 38,000  Level FlightAware ADS-B
Mon 01:09:44 PM 45.2980 -57.1540 260° West 479 551 38,000  Level FlightAware ADS-B
Mon 01:10:26 PM 45.2810 -57.2810 259° West 479 551 38,000  Level FlightAware ADS-B
Mon 01:11:02 PM 45.2660 -57.3970 260° West 480 552 38,000  Level FlightAware ADS-B
Mon 01:11:49 PM 45.2530 -57.4990 260° West 480 552 38,000  Level FlightAware ADS-B
Mon 01:12:34 PM 45.2290 -57.6780 259° West 480 552 38,000  Level FlightAware ADS-B
Mon 01:13:14 PM 45.2120 -57.8020 259° West 480 552 38,000  Level FlightAware ADS-B
Mon 01:13:56 PM 45.1950 -57.9310 259° West 479 551 38,000  Level FlightAware ADS-B
Mon 01:14:38 PM 45.1770 -58.0600 259° West 479 551 38,000  Level FlightAware ADS-B
Mon 01:15:18 PM 45.1600 -58.1840 259° West 479 551 38,000  Level FlightAware ADS-B
Mon 01:15:58 PM 45.1430 -58.3070 259° West 480 552 38,000  Level FlightAware ADS-B
Mon 01:16:40 PM 45.1250 -58.4360 259° West 480 552 38,000  Level FlightAware ADS-B
Mon 01:17:20 PM 45.1080 -58.5580 259° West 480 552 38,000  Level FlightAware ADS-B
Mon 01:18:02 PM 45.0900 -58.6870 259° West 477 549 38,000  Level FlightAware ADS-B
Mon 01:18:43 PM 45.0720 -58.8090 258° West 474 545 38,000  Level FlightAware ADS-B
Mon 01:19:27 PM 45.0530 -58.9440 259° West 474 545 38,000  Level FlightAware ADS-B
Mon 01:20:08 PM 45.0340 -59.0690 258° West 475 547 38,000  Level FlightAware ADS-B
Mon 01:20:52 PM 45.0230 -59.2030 263° West 469 540 38,000  Level FlightAware ADS-B
Mon 01:21:32 PM 45.0200 -59.3260 268° West 469 540 38,000  Level FlightAware ADS-B
Mon 01:22:10 PM 45.0170 -59.4410 268° West 469 540 38,000 357 Level FlightAware ADS-B
Mon 01:22:56 PM 45.0140 -59.5820 268° West 464 534 38,500 558 Climbing FlightAware ADS-B
Mon 01:23:36 PM 45.0110 -59.7020 268° West 468 539 38,800 585 Climbing FlightAware ADS-B
Mon 01:24:18 PM 45.0080 -59.8300 268° West 468 539 39,300 659 Climbing FlightAware ADS-B
Mon 01:24:58 PM 45.0050 -59.9500 268° West 468 539 39,700 525 Climbing FlightAware ADS-B
Mon 01:25:38 PM 45.0010 -60.0740 267° West 468 539 40,000 205 Climbing FlightAware ADS-B
Mon 01:26:26 PM 44.9970 -60.2200 268° West 470 541 40,000  Level FlightAware ADS-B
Mon 01:27:08 PM 44.9940 -60.3490 268° West 469 540 40,000  Level FlightAware ADS-B
Mon 01:27:44 PM 44.9900 -60.4590 267° West 469 540 40,000  Level FlightAware ADS-B
Mon 01:28:24 PM 44.9860 -60.5820 267° West 469 540 40,000  Level FlightAware ADS-B
Mon 01:29:08 PM 44.9820 -60.7150 268° West 467 537 40,000  Level FlightAware ADS-B
Mon 01:29:46 PM 44.9780 -60.8300 267° West 466 536 40,000  Level FlightAware ADS-B
Mon 01:30:30 PM 44.9740 -60.9480 267° West 466 536 40,000  Level FlightAware ADS-B
Mon 01:31:31 PM 44.9670 -61.1300 267° West 466 536 40,000  Level FlightAware ADS-B
Mon 01:32:07 PM 44.9640 -61.2230 267° West 466 536 40,000  Level FlightAware ADS-B
Mon 01:33:08 PM 44.9580 -61.3810 267° West 466 536 40,000  Level FlightAware ADS-B
Mon 01:33:45 PM 44.9540 -61.4760 267° West 466 536 40,000  Level FlightAware ADS-B
Mon 01:34:22 PM 44.9510 -61.5720 268° West 466 536 40,000  Level FlightAware ADS-B
Mon 01:35:10 PM 44.9460 -61.6960 267° West 466 536 40,000  Level FlightAware ADS-B
Mon 01:35:56 PM 44.9420 -61.8150 267° West 466 536 40,000  Level FlightAware ADS-B
Mon 01:36:32 PM 44.9380 -61.9080 267° West 466 536 40,000  Level FlightAware ADS-B
Mon 01:37:09 PM 44.9350 -62.0040 268° West 466 536 40,000  Level FlightAware ADS-B
Mon 01:37:47 PM 44.9310 -62.1020 267° West 466 536 40,000  Level FlightAware ADS-B
Mon 01:38:35 PM 44.9260 -62.2260 267° West 466 536 40,000  Level FlightAware ADS-B
Mon 01:39:21 PM 44.9220 -62.3450 267° West 466 536 40,000  Level FlightAware ADS-B
Mon 01:40:09 PM 44.9170 -62.4690 267° West 466 536 40,000  Level FlightAware ADS-B
Mon 01:41:04 PM 44.8900 -62.8690 265° West 465 535 40,000  Level FlightAware ADS-B
Mon 01:41:40 PM 44.8840 -62.9870 266° West 466 536 40,000  Level FlightAware ADS-B
Mon 01:42:24 PM 44.8770 -63.1040 265° West 466 536 40,000  Level FlightAware ADS-B
Mon 01:43:19 PM 44.8680 -63.2700 266° West 466 536 40,000  Level FlightAware ADS-B
Mon 01:44:02 PM 44.8610 -63.4060 266° West 468 539 40,000  Level FlightAware ADS-B
Mon 01:44:43 PM 44.8530 -63.5290 265° West 468 539 40,000  Level FlightAware ADS-B
Mon 01:45:25 PM 44.8460 -63.6540 266° West 467 537 40,000  Level FlightAware ADS-B
Mon 01:46:08 PM 44.8380 -63.7930 265° West 467 537 40,000  Level FlightAware ADS-B
Mon 01:46:48 PM 44.8300 -63.9140 265° West 467 537 40,000  Level FlightAware ADS-B
Mon 01:47:30 PM 44.8220 -64.0440 265° West 467 537 40,000  Level FlightAware ADS-B
Mon 01:48:18 PM 44.8130 -64.1860 265° West 467 537 40,000  Level FlightAware ADS-B
Mon 01:48:57 PM 44.8060 -64.3050 265° West 467 537 40,000  Level FlightAware ADS-B
Mon 01:49:42 PM 44.7970 -64.4440 265° West 469 540 40,000  Level FlightAware ADS-B
Mon 01:50:19 PM 44.7890 -64.5570 264° West 468 539 40,000  Level FlightAware ADS-B
Mon 01:50:54 PM 44.7820 -64.6620 265° West 468 539 40,000  Level FlightAware ADS-B
Mon 01:51:38 PM 44.7730 -64.7940 265° West 468 539 40,000  Level FlightAware ADS-B
Mon 01:52:18 PM 44.7650 -64.9130 265° West 468 539 40,000  Level FlightAware ADS-B
Mon 01:53:04 PM 44.7550 -65.0540 264° West 468 539 40,000  Level FlightAware ADS-B
Mon 01:53:44 PM 44.7460 -65.1730 264° West 467 537 40,000  Level FlightAware ADS-B
Mon 01:54:22 PM 44.7380 -65.2880 264° West 467 537 40,000  Level FlightAware ADS-B
Mon 01:55:08 PM 44.7270 -65.4280 264° West 467 537 40,000  Level FlightAware ADS-B
Mon 01:55:46 PM 44.7190 -65.5400 264° West 467 537 40,000  Level FlightAware ADS-B
Mon 01:56:24 PM 44.7100 -65.6530 264° West 466 536 40,000  Level FlightAware ADS-B
Mon 01:57:09 PM 44.6990 -65.7940 264° West 466 536 40,000  Level FlightAware ADS-B
Mon 01:57:50 PM 44.6890 -65.9150 263° West 466 536 40,000  Level FlightAware ADS-B
Mon 01:58:28 PM 44.6800 -66.0300 264° West 468 539 40,000  Level FlightAware ADS-B
Mon 01:59:12 PM 44.6700 -66.1560 264° West 469 540 40,000  Level FlightAware ADS-B
Mon 01:59:56 PM 44.6590 -66.2870 263° West 469 540 40,000  Level FlightAware ADS-B
Mon 02:00:38 PM 44.6490 -66.4140 264° West 469 540 40,000  Level FlightAware ADS-B
Mon 02:01:20 PM 44.6380 -66.5420 263° West 469 540 40,000  Level FlightAware ADS-B
Mon 02:01:54 PM 44.6290 -66.6430 263° West 469 540 40,000  Level FlightAware ADS-B
Mon 02:02:44 PM 44.6160 -66.7930 263° West 469 540 40,000  Level FlightAware ADS-B
Mon 02:03:24 PM 44.6050 -66.9230 263° West 470 541 40,000  Level FlightAware ADS-B
Mon 02:04:10 PM 44.5930 -67.0610 263° West 470 541 40,000  Level FlightAware ADS-B
Mon 02:04:42 PM 44.5840 -67.1580 263° West 470 541 40,000  Level FlightAware ADS-B
Mon 02:05:24 PM 44.5720 -67.2840 262° West 471 542 40,000  Level FlightAware ADS-B
Mon 02:06:06 PM 44.5610 -67.4110 263° West 471 542 40,000  Level FlightAware ADS-B
Mon 02:06:42 PM 44.5510 -67.5200 263° West 473 544 40,000  Level FlightAware ADS-B
Mon 02:07:23 PM 44.5390 -67.6430 262° West 473 544 40,000  Level FlightAware ADS-B
Mon 02:08:06 PM 44.5260 -67.7740 262° West 473 544 40,000  Level FlightAware ADS-B
Mon 02:08:46 PM 44.5140 -67.8970 262° West 474 545 40,000  Level FlightAware ADS-B
Mon 02:09:30 PM 44.5020 -68.0290 263° West 474 545 40,000  Level FlightAware ADS-B
Mon 02:10:12 PM 44.4890 -68.1570 262° West 474 545 40,000  Level FlightAware ADS-B
Mon 02:10:52 PM 44.4770 -68.2770 262° West 474 545 40,000  Level FlightAware ADS-B
Mon 02:11:42 PM 44.4660 -68.3860 262° West 474 545 40,000  Level FlightAware ADS-B
Mon 02:12:26 PM 44.4480 -68.5620 262° West 474 545 40,000  Level FlightAware ADS-B
Mon 02:13:06 PM 44.4350 -68.6840 262° West 474 545 40,000  Level FlightAware ADS-B
Mon 02:13:49 PM 44.4220 -68.8130 262° West 474 545 40,000  Level FlightAware ADS-B
Mon 02:14:30 PM 44.4090 -68.9360 262° West 474 545 40,000  Level FlightAware ADS-B
Mon 02:14:54 PM 44.4010 -69.0100 261° West 474 545 40,000  Level FlightAware ADS-B
Mon 02:15:37 PM 44.3880 -69.1240 261° West 474 545 40,000  Level FlightAware ADS-B
Mon 02:17:17 PM 44.3570 -69.4080 261° West 478 550 40,000  Level FlightAware ADS-B
Mon 02:17:57 PM 44.3390 -69.5680 261° West 479 551 40,000  Level FlightAware ADS-B
Mon 02:18:41 PM 44.3240 -69.7000 261° West 480 552 40,000  Level FlightAware ADS-B
Mon 02:19:20 PM 44.3110 -69.8180 261° West 481 554 40,000  Level FlightAware ADS-B
Mon 02:20:04 PM 44.2950 -69.9530 261° West 482 555 40,000  Level FlightAware ADS-B
Mon 02:20:46 PM 44.2800 -70.0810 261° West 482 555 40,000  Level FlightAware ADS-B
Mon 02:21:26 PM 44.2660 -70.2060 261° West 482 555 40,000  Level FlightAware ADS-B
Mon 02:22:10 PM 44.2500 -70.3390 261° West 482 555 40,000  Level FlightAware ADS-B
Mon 02:22:38 PM 44.2390 -70.4260 260° West 482 555 40,000  Level FlightAware ADS-B
Mon 02:23:28 PM 44.2210 -70.5790 261° West 482 555 40,000  Level FlightAware ADS-B
Mon 02:24:08 PM 44.2060 -70.7010 260° West 482 555 40,000  Level FlightAware ADS-B
Mon 02:24:50 PM 44.1900 -70.8300 260° West 482 555 40,000  Level FlightAware ADS-B
Mon 02:25:30 PM 44.1750 -70.9520 260° West 482 555 40,000  Level FlightAware ADS-B
Mon 02:26:14 PM 44.1580 -71.0860 260° West 482 555 40,000  Level FlightAware ADS-B
Mon 02:26:54 PM 44.1470 -71.2090 263° West 481 554 40,000  Level FlightAware ADS-B
Mon 02:27:34 PM 44.1380 -71.3310 264° West 482 555 40,000  Level FlightAware ADS-B
Mon 02:28:18 PM 44.1290 -71.4660 265° West 481 554 40,000  Level FlightAware ADS-B
Mon 02:29:02 PM 44.1200 -71.6040 265° West 481 554 40,000  Level FlightAware ADS-B
Mon 02:29:44 PM 44.1110 -71.7300 264° West 480 552 40,000  Level FlightAware ADS-B
Mon 02:30:25 PM 44.1020 -71.8550 264° West 480 552 40,000  Level FlightAware ADS-B
Mon 02:31:10 PM 44.0920 -71.9950 264° West 480 552 40,000  Level FlightAware ADS-B
Mon 02:31:42 PM 44.0850 -72.0940 264° West 480 552 40,000  Level FlightAware ADS-B
Mon 02:32:24 PM 44.0750 -72.2210 264° West 480 552 40,000  Level FlightAware ADS-B
Mon 02:33:08 PM 44.0650 -72.3550 264° West 479 551 40,000  Level FlightAware ADS-B
Mon 02:33:42 PM 44.0580 -72.4540 264° West 479 551 40,000  Level FlightAware ADS-B
Mon 02:34:32 PM 44.0450 -72.6140 264° West 480 552 40,000  Level FlightAware ADS-B
Mon 02:35:12 PM 44.0350 -72.7350 263° West 480 552 40,000  Level FlightAware ADS-B
Mon 02:35:56 PM 44.0250 -72.8680 264° West 481 554 40,000  Level FlightAware ADS-B
Mon 02:36:27 PM 44.0170 -72.9630 263° West 481 554 40,000  Level FlightAware ADS-B
Mon 02:37:08 PM 44.0070 -73.0890 264° West 481 554 40,000  Level FlightAware ADS-B
Mon 02:37:53 PM 43.9950 -73.2270 263° West 481 554 40,000  Level FlightAware ADS-B
Mon 02:38:30 PM 43.9850 -73.3410 263° West 482 555 40,000  Level FlightAware ADS-B
Mon 02:39:33 PM 43.9690 -73.5330 263° West 482 555 40,000  Level FlightAware ADS-B
Mon 02:40:13 PM 43.9580 -73.6550 263° West 482 555 40,000  Level FlightAware ADS-B
Mon 02:40:54 PM 43.9470 -73.7790 263° West 482 555 40,000  Level FlightAware ADS-B
Mon 02:41:39 PM 43.9340 -73.9160 263° West 482 555 40,000  Level FlightAware ADS-B
Mon 02:42:19 PM 43.9240 -74.0350 263° West 482 555 40,000  Level FlightAware ADS-B
Mon 02:42:59 PM 43.9120 -74.1630 263° West 483 556 40,000  Level FlightAware ADS-B
Mon 02:43:43 PM 43.8990 -74.3000 263° West 484 557 40,000  Level FlightAware ADS-B
Mon 02:44:24 PM 43.8870 -74.4230 262° West 484 557 40,000  Level FlightAware ADS-B
Mon 02:45:03 PM 43.8760 -74.5420 263° West 484 557 40,000  Level FlightAware ADS-B
Mon 02:45:43 PM 43.8640 -74.6650 262° West 484 557 40,000  Level FlightAware ADS-B
Mon 02:46:18 PM 43.8540 -74.7670 262° West 483 556 40,000  Level FlightAware ADS-B
Mon 02:47:03 PM 43.8400 -74.9090 262° West 483 556 40,000  Level FlightAware ADS-B
Mon 02:47:38 PM 43.8290 -75.0180 262° West 483 556 40,000  Level FlightAware ADS-B
Mon 02:48:18 PM 43.8170 -75.1390 262° West 483 556 40,000  Level FlightAware ADS-B
Mon 02:49:03 PM 43.8030 -75.2780 262° West 483 556 40,000  Level FlightAware ADS-B
Mon 02:49:33 PM 43.7940 -75.3610 261° West 483 556 40,000  Level FlightAware ADS-B
Mon 02:50:11 PM 43.7810 -75.4880 262° West 482 555 40,000  Level FlightAware ADS-B
Mon 02:50:59 PM 43.7650 -75.6350 261° West 481 554 40,000  Level FlightAware ADS-B
Mon 02:51:39 PM 43.7520 -75.7550 262° West 480 552 40,000  Level FlightAware ADS-B
Mon 02:52:19 PM 43.7390 -75.8780 262° West 479 551 40,000  Level FlightAware ADS-B
Mon 02:52:53 PM 43.7280 -75.9780 261° West 479 551 40,000  Level FlightAware ADS-B
Mon 02:53:39 PM 43.7130 -76.1180 262° West 478 550 40,000  Level FlightAware ADS-B
Mon 02:54:19 PM 43.6990 -76.2390 261° West 477 549 40,000  Level FlightAware ADS-B
Mon 02:55:03 PM 43.6840 -76.3700 261° West 476 548 40,000  Level FlightAware ADS-B
Mon 02:55:47 PM 43.6690 -76.5030 261° West 476 548 40,000  Level FlightAware ADS-B
Mon 02:56:25 PM 43.6560 -76.6160 261° West 476 548 40,000  Level FlightAware ADS-B
Mon 02:57:08 PM 43.6420 -76.7440 261° West 475 547 40,000  Level FlightAware ADS-B
Mon 02:57:44 PM 43.6290 -76.8530 261° West 476 548 40,000  Level FlightAware ADS-B
Mon 02:58:24 PM 43.6150 -76.9730 261° West 476 548 40,000  Level FlightAware ADS-B
Mon 02:59:10 PM 43.5980 -77.1110 260° West 476 548 40,000  Level FlightAware ADS-B
Mon 02:59:42 PM 43.5870 -77.2010 260° West 476 548 40,000  Level FlightAware ADS-B
Mon 03:00:25 PM 43.5720 -77.3280 261° West 475 547 40,000  Level FlightAware ADS-B
Mon 03:01:08 PM 43.5560 -77.4620 261° West 475 547 40,000  Level FlightAware ADS-B
Mon 03:01:50 PM 43.5400 -77.5840 260° West 476 548 40,000  Level FlightAware ADS-B
Mon 03:02:28 PM 43.5260 -77.7010 261° West 476 548 40,000  Level FlightAware ADS-B
Mon 03:03:11 PM 43.5100 -77.8260 260° West 476 548 40,000  Level FlightAware ADS-B
Mon 03:03:56 PM 43.4930 -77.9640 260° West 476 548 40,000  Level FlightAware ADS-B
Mon 03:04:36 PM 43.4780 -78.0800 260° West 476 548 40,000  Level FlightAware ADS-B
Mon 03:05:33 PM 43.4560 -78.2500 260° West 475 547 40,000  Level FlightAware ADS-B
Mon 03:06:15 PM 43.4390 -78.3770 260° West 475 547 40,000  Level FlightAware ADS-B
Mon 03:06:57 PM 43.4230 -78.4990 260° West 474 545 40,000  Level FlightAware ADS-B
Mon 03:07:41 PM 43.4050 -78.6310 259° West 474 545 40,000  Level FlightAware ADS-B
Mon 03:08:17 PM 43.3910 -78.7370 260° West 473 544 40,000  Level FlightAware ADS-B
Mon 03:08:57 PM 43.3750 -78.8560 260° West 474 545 40,000  Level FlightAware ADS-B
Mon 03:09:37 PM 43.3590 -78.9750 260° West 474 545 40,000  Level FlightAware ADS-B
Mon 03:10:29 PM 43.3380 -79.1260 259° West 474 545 40,000  Level FlightAware ADS-B
Mon 03:11:43 PM 43.3210 -79.2440 259° West 474 545 40,000  Level FlightAware ADS-B
Mon 03:12:27 PM 43.2890 -79.4740 259° West 473 544 40,000  Level FlightAware ADS-B
Mon 03:13:07 PM 43.2730 -79.5880 259° West 473 544 40,000  Level FlightAware ADS-B
Mon 03:13:45 PM 43.2560 -79.7010 258° West 472 543 40,000  Level FlightAware ADS-B
Mon 03:14:26 PM 43.2390 -79.8220 259° West 463 533 40,000  Level FlightAware ADS-B
Mon 03:15:07 PM 43.2220 -79.9380 259° West 462 532 40,000  Level FlightAware ADS-B
Mon 03:15:38 PM 43.2090 -80.0270 259° West 462 532 40,000  Level FlightAware ADS-B
Mon 03:16:22 PM 43.1900 -80.1530 258° West 461 531 40,000  Level FlightAware ADS-B
Mon 03:17:06 PM 43.1720 -80.2790 259° West 461 531 40,000  Level FlightAware ADS-B
Mon 03:17:44 PM 43.1550 -80.3860 258° West 456 525 40,000  Level FlightAware ADS-B
Mon 03:18:31 PM 43.1360 -80.5170 259° West 451 519 40,000  Level FlightAware ADS-B
Mon 03:19:08 PM 43.1200 -80.6220 258° West 450 518 40,000  Level FlightAware ADS-B
Mon 03:19:53 PM 43.1010 -80.7470 258° West 449 517 40,000  Level FlightAware ADS-B
Mon 03:20:31 PM 43.0840 -80.8540 258° West 449 517 40,000  Level FlightAware ADS-B
Mon 03:21:10 PM 43.0680 -80.9580 258° West 448 516 40,000  Level FlightAware ADS-B
Mon 03:21:52 PM 43.0490 -81.0760 258° West 448 516 40,000  Level FlightAware ADS-B
Mon 03:22:36 PM 43.0370 -81.1950 262° West 449 517 40,000  Level FlightAware ADS-B
Mon 03:23:17 PM 43.0350 -81.3050 269° West 450 518 40,000  Level FlightAware ADS-B
Mon 03:23:56 PM 43.0330 -81.4180 269° West 451 519 40,000  Level FlightAware ADS-B
Mon 03:24:42 PM 43.0310 -81.5460 269° West 451 519 40,000  Level FlightAware ADS-B
Mon 03:25:21 PM 43.0290 -81.6630 269° West 451 519 40,000  Level FlightAware ADS-B
Mon 03:26:02 PM 43.0260 -81.7760 268° West 451 519 40,000  Level FlightAware ADS-B
Mon 03:26:46 PM 43.0230 -81.9040 268° West 451 519 40,000  Level FlightAware ADS-B
Mon 03:27:31 PM 43.0210 -82.0240 269° West 451 519 40,000  Level FlightAware ADS-B
Mon 03:28:11 PM 43.0180 -82.1460 268° West 451 519 40,000  Level FlightAware ADS-B
Mon 03:28:51 PM 43.0150 -82.2590 268° West 450 518 40,000  Level FlightAware ADS-B
Mon 03:29:31 PM 43.0120 -82.3780 268° West 451 519 40,000  Level FlightAware ADS-B
Mon 03:30:05 PM 43.0040 -82.4740 264° West 449 517 40,000 -439 Level FlightAware ADS-B
Mon 03:30:53 PM 42.9870 -82.6080 260° West 444 511 39,400 -1,109 Descending FlightAware ADS-B
Mon 03:31:37 PM 42.9720 -82.7270 260° West 431 496 38,300 -1,643 Descending FlightAware ADS-B
Mon 03:32:17 PM 42.9570 -82.8320 259° West 424 488 37,100 -2,429 Descending FlightAware ADS-B
Mon 03:33:01 PM 42.9400 -82.9460 259° West 441 507 34,900 -2,241 Descending FlightAware ADS-B
Mon 03:33:40 PM 42.9220 -83.0550 257° West 451 519 34,000 -667 Descending FlightAware ADS-B
Mon 03:34:22 PM 42.9020 -83.1720 257° West 452 520 34,000  Level FlightAware ADS-B
Mon 03:35:04 PM 42.8820 -83.2870 257° West 451 519 34,000 -494 Level FlightAware ADS-B
Mon 03:35:47 PM 42.8610 -83.4010 256° West 444 511 33,300 -1,364 Descending FlightAware ADS-B
Mon 03:36:32 PM 42.8380 -83.5270 256° West 448 516 32,000 -940 Descending FlightAware ADS-B
Mon 03:37:10 PM 42.8190 -83.6320 256° West 453 521 32,000  Level FlightAware ADS-B
Mon 03:37:52 PM 42.8110 -83.7510 265° West 450 518 32,000  Level FlightAware ADS-B
Mon 03:38:28 PM 42.8200 -83.8530 277° West 450 518 32,000  Level FlightAware ADS-B
Mon 03:39:10 PM 42.8300 -83.9700 277° West 446 513 32,000  Level FlightAware ADS-B
Mon 03:39:50 PM 42.8400 -84.0820 277° West 447 514 32,000  Level FlightAware ADS-B
Mon 03:40:20 PM 42.8530 -84.1620 283° West 445 512 32,000  Level FlightAware ADS-B
Mon 03:41:04 PM 42.8930 -84.2720 296° West 444 511 32,000  Level FlightAware ADS-B
Mon 03:41:58 PM 42.8980 -84.4230 273° West 445 512 32,000  Level FlightAware ADS-B
Mon 03:42:40 PM 42.8870 -84.5370 263° West 445 512 32,000  Level FlightAware ADS-B
Mon 03:43:20 PM 42.8760 -84.6490 262° West 444 511 32,000  Level FlightAware ADS-B
Mon 03:43:56 PM 42.8660 -84.7490 262° West 444 511 32,000  Level FlightAware ADS-B
Mon 03:44:40 PM 42.8540 -84.8710 262° West 445 512 32,000  Level FlightAware ADS-B
Mon 03:45:28 PM 42.8400 -85.0040 262° West 445 512 32,000  Level FlightAware ADS-B
Mon 03:46:12 PM 42.8270 -85.1260 262° West 445 512 32,000  Level FlightAware ADS-B
Mon 03:46:54 PM 42.8150 -85.2430 262° West 445 512 32,000  Level FlightAware ADS-B
Mon 03:47:30 PM 42.8040 -85.3430 262° West 446 513 32,000 -158 Level FlightAware ADS-B
Mon 03:48:10 PM 42.7920 -85.4530 262° West 442 509 31,800 -1,357 Descending FlightAware ADS-B
Mon 03:48:54 PM 42.7740 -85.5710 258° West 439 505 30,100 -2,500 Descending FlightAware ADS-B
Mon 03:49:34 PM 42.7540 -85.6800 256° West 442 509 28,300 -2,475 Descending FlightAware ADS-B
Mon 03:50:14 PM 42.7350 -85.7860 256° West 438 504 26,800 -2,214 Descending FlightAware ADS-B
Mon 03:50:58 PM 42.7130 -85.9050 256° West 430 495 25,200 -2,114 Descending FlightAware ADS-B
Mon 03:51:42 PM 42.6930 -86.0170 256° West 423 487 23,700 -2,154 Descending FlightAware ADS-B
Mon 03:52:16 PM 42.6760 -86.1050 255° West 416 479 22,400 -2,160 Descending FlightAware ADS-B
Mon 03:52:57 PM 42.6580 -86.2070 257° West 409 471 21,000 -2,000 Descending FlightAware ADS-B
Mon 03:53:37 PM 42.6390 -86.3060 255° West 398 458 19,700 -2,025 Descending FlightAware ADS-B
Mon 03:54:17 PM 42.6220 -86.4010 256° West 390 449 18,300 -1,275 Descending FlightAware ADS-B
Mon 03:54:57 PM 42.6040 -86.4960 256° West 387 445 18,000 -220 Descending FlightAware ADS-B
Mon 03:55:39 PM 42.5850 -86.5950 255° West 387 445 18,000  Level FlightAware ADS-B
Mon 03:56:17 PM 42.5690 -86.6810 256° West 386 444 18,000 -1,000 Level FlightAware ADS-B
Mon 03:57:03 PM 42.5440 -86.7860 252° West 377 434 16,600 -2,049 Descending FlightAware ADS-B
Mon 03:57:39 PM 42.5220 -86.8690 250° West 376 433 15,200 -2,203 Descending FlightAware ADS-B
Mon 03:58:22 PM 42.4970 -86.9600 250° West 369 425 13,700 -2,069 Descending FlightAware ADS-B
Mon 03:59:06 PM 42.4710 -87.0550 250° West 361 415 12,200 -2,100 Descending FlightAware ADS-B
Mon 03:59:42 PM 42.4500 -87.1310 249° West 355 409 10,900 -1,725 Descending FlightAware ADS-B
Mon 04:00:26 PM 42.4250 -87.2210 249° West 338 389 9,900 -1,000 Descending FlightAware ADS-B
Mon 04:00:54 PM 42.4100 -87.2760 250° West 341 392 9,700 -235 Descending FlightAware ADS-B
Mon 04:01:17 PM 42.3970 -87.3230 249° West 342 394 9,700  Level FlightAware ADS-B
Mon 04:01:41 PM 42.3840 -87.3710 250° West 343 395 9,700  Level FlightAware ADS-B
Mon 04:02:12 PM 42.3670 -87.4330 250° West 342 394 9,700  Level FlightAware ADS-B
Mon 04:02:38 PM 42.3520 -87.4850 249° West 343 395 9,700  Level FlightAware ADS-B
Mon 04:02:54 PM 42.3420 -87.5160 246° West 342 394 9,700  Level FlightAware ADS-B
Mon 04:03:17 PM 42.3190 -87.5540 231° Southwest 316 364 9,700  Level FlightAware ADS-B
Mon 04:03:34 PM 42.3030 -87.5740 223° Southwest 300 345 9,700 -267 Level FlightAware ADS-B
Mon 04:04:02 PM 42.2740 -87.6040 217° Southwest 279 321 9,500 -982 Descending FlightAware ADS-B
Mon 04:04:29 PM 42.2450 -87.6350 218° Southwest 278 320 8,800 -857 Descending FlightAware ADS-B
Mon 04:04:58 PM 42.2160 -87.6660 218° Southwest 281 323 8,700 -133 Descending FlightAware ADS-B
Mon 04:05:14 PM 42.1990 -87.6840 218° Southwest 279 321 8,700  Level FlightAware ADS-B
Mon 04:05:37 PM 42.1760 -87.7070 217° Southwest 277 319 8,700  Level FlightAware ADS-B
Mon 04:06:09 PM 42.1440 -87.7410 218° Southwest 277 319 8,700  Level FlightAware ADS-B
Mon 04:06:36 PM 42.1170 -87.7700 219° Southwest 281 323 8,700  Level FlightAware ADS-B
Mon 04:06:48 PM 42.1030 -87.7840 217° Southwest 282 325 8,700  Level FlightAware ADS-B
Mon 04:07:16 PM 42.0770 -87.8150 222° Southwest 285 328 8,700  Level FlightAware ADS-B
Mon 04:07:32 PM 42.0670 -87.8400 242° Southwest 290 334 8,700 -261 Level FlightAware ADS-B
Mon 04:08:02 PM 42.0590 -87.8930 259° West 291 335 8,500 -873 Descending FlightAware ADS-B
Mon 04:08:27 PM 42.0590 -87.9380 270° West 288 331 7,900 -923 Descending FlightAware ADS-B
Mon 04:08:54 PM 42.0590 -87.9870 270° West 288 331 7,700 -279 Descending FlightAware ADS-B
Mon 04:09:10 PM 42.0530 -88.0130 253° West 280 322 7,700  Level FlightAware ADS-B
Mon 04:09:22 PM 42.0420 -88.0300 229° Southwest 276 318 7,700  Level FlightAware ADS-B
Mon 04:09:51 PM 42.0130 -88.0620 219° Southwest 276 318 7,700  Level FlightAware ADS-B
Mon 04:10:18 PM 41.9870 -88.0910 220° Southwest 276 318 7,700  Level FlightAware ADS-B
Mon 04:10:34 PM 41.9710 -88.1060 215° Southwest 259 298 7,700  Level FlightAware ADS-B
Mon 04:10:58 PM 41.9490 -88.1270 215° Southwest 236 272 7,700  Level FlightAware ADS-B
Mon 04:11:45 PM 41.9220 -88.1520 215° Southwest 238 274 7,700  Level FlightAware ADS-B
Mon 04:12:13 PM 41.8900 -88.1880 220° Southwest 205 236 7,700 -536 Level FlightAware ADS-B
Mon 04:12:41 PM 41.8690 -88.2140 223° Southwest 197 227 7,200 -1,135 Descending FlightAware ADS-B
Mon 04:12:50 PM 41.8630 -88.2250 234° Southwest 201 231 7,000 -1,304 Descending FlightAware ADS-B
Mon 04:13:04 PM 41.8610 -88.2420 261° West 206 237 6,700 -1,043 Descending FlightAware ADS-B
Mon 04:13:36 PM 41.8620 -88.2810 272° West 207 238 6,200 -1,091 Descending FlightAware ADS-B
Mon 04:13:48 PM 41.8630 -88.2960 275° West 207 238 5,900 -1,143 Descending FlightAware ADS-B
Mon 04:14:18 PM 41.8700 -88.3350 284° West 209 241 5,400 -1,174 Descending FlightAware ADS-B
Mon 04:14:34 PM 41.8840 -88.3450 332° Northwest 210 242 5,000 -1,167 Descending FlightAware ADS-B
Mon 04:14:54 PM 41.9020 -88.3470 355° North 207 238 4,700 -450 Descending FlightAware ADS-B
Mon 04:15:14 PM 41.9200 -88.3390 18° North 204 235 4,700  Level FlightAware ADS-B
Mon 04:15:27 PM 41.9290 -88.3250 49° Northeast 200 230 4,700  Level FlightAware ADS-B
Mon 04:15:59 PM 41.9450 -88.2930 56° Northeast 199 229 4,700  Level FlightAware ADS-B
Mon 04:16:08 PM 41.9490 -88.2840 59° Northeast 199 229 4,700  Level FlightAware ADS-B
Mon 04:16:37 PM 41.9630 -88.2530 59° Northeast 202 232 4,700  Level FlightAware ADS-B
Mon 04:16:51 PM 41.9670 -88.2360 72° East 201 231 4,700 -698 Level FlightAware ADS-B
Mon 04:17:20 PM 41.9680 -88.2000 88° East 205 236 4,200 -1,116 Descending FlightAware ADS-B
Mon 04:17:34 PM 41.9680 -88.1820 90° East 203 234 3,900 -1,116 Descending FlightAware ADS-B
Mon 04:18:03 PM 41.9680 -88.1460 90° East 198 228 3,400 -982 Descending FlightAware ADS-B
Mon 04:18:29 PM 41.9680 -88.1150 90° East 188 216 3,000 -1,034 Descending FlightAware ADS-B
Mon 04:19:01 PM 41.9690 -88.0780 88° East 186 214 2,400 -1,053 Descending FlightAware ADS-B
Mon 04:19:26 PM 41.9690 -88.0500 90° East 171 197 2,000 -762 Descending FlightAware ADS-B
Mon 04:20:04 PM 41.9690 -88.0150 90° East 143 165 1,600 -724 Descending FlightAware ADS-B
Mon 04:20:24 PM 41.9690 -87.9970 90° East 141 162 1,300 -700 Descending FlightAware ADS-B
Mon 04:21:04 PM 41.9690 -87.9640 90° East 140 161 900 -692 Descending FlightAware ADS-B
Mon 04:21:16 PM 41.9690 -87.9510 90° East 141 162 700 -769 Descending FlightAware ADS-B
Mon 04:21:43 PM 41.9690 -87.9300 90° East 137 158 400 -667 Descending FlightAware ADS-B

Login

Don't have an account? Register now (free) for customized features, flight alerts, and more!